createdAt,value
2018-06-16T00:00:22.373Z,101012.41
2018-06-16T00:05:17.104Z,101015.20
2018-06-16T00:10:11.929Z,101016.61
2018-06-16T00:15:06.747Z,101027.49
2018-06-16T00:20:01.395Z,101028.75
2018-06-16T00:25:00.562Z,101028.50
2018-06-16T00:29:55.583Z,101026.34
2018-06-16T00:34:50.246Z,101019.91
2018-06-16T00:39:44.726Z,101018.22
2018-06-16T00:44:39.464Z,101013.12
2018-06-16T00:49:34.043Z,101009.73
2018-06-16T00:54:29.202Z,101005.88
2018-06-16T00:59:23.910Z,101010.75
2018-06-16T01:04:18.510Z,101010.80
2018-06-16T01:09:13.105Z,101010.82
2018-06-16T01:14:07.627Z,101016.53
2018-06-16T01:19:02.277Z,101019.17
2018-06-16T01:23:56.787Z,101018.93
2018-06-16T01:28:51.347Z,101018.94
2018-06-16T01:33:46.254Z,101018.68
2018-06-16T01:38:40.794Z,101017.47
2018-06-16T01:43:35.799Z,101013.84
2018-06-16T01:48:30.335Z,101007.75
2018-06-16T01:53:24.898Z,101010.05
2018-06-16T01:58:19.481Z,101006.77
2018-06-16T02:03:13.964Z,101005.30
2018-06-16T02:08:08.514Z,101010.03
2018-06-16T02:13:03.098Z,101010.98
2018-06-16T02:17:57.713Z,101017.67
2018-06-16T02:22:52.853Z,101016.22
2018-06-16T02:27:47.735Z,101020.34
2018-06-16T02:32:42.313Z,101024.08
2018-06-16T02:37:37.043Z,101029.07
2018-06-16T02:42:31.336Z,101031.62
2018-06-16T02:47:26.052Z,101024.47
2018-06-16T02:52:20.546Z,101029.70
2018-06-16T02:57:15.040Z,101021.44
2018-06-16T03:02:09.532Z,101024.23
2018-06-16T03:07:04.150Z,101019.86
2018-06-16T03:11:58.706Z,101017.33
2018-06-16T03:16:53.401Z,101012.11
2018-06-16T03:21:47.931Z,101014.92
2018-06-16T03:26:42.451Z,101019.52
2018-06-16T03:31:36.980Z,101020.14
2018-06-16T03:36:31.686Z,101020.64
2018-06-16T03:41:26.445Z,101023.81
2018-06-16T03:46:20.726Z,101013.97
2018-06-16T03:51:15.603Z,101019.44
2018-06-16T03:56:10.116Z,101017.24
2018-06-16T04:01:04.857Z,101018.48
2018-06-16T04:05:59.579Z,101021.50
2018-06-16T04:10:56.872Z,101015.66
2018-06-16T04:15:51.421Z,101014.64
2018-06-16T04:20:46.110Z,101007.45
2018-06-16T04:25:40.624Z,101016.87
2018-06-16T04:30:35.965Z,101023.15
2018-06-16T04:35:30.605Z,101017.52
2018-06-16T04:40:24.894Z,101013.05
2018-06-16T04:45:19.870Z,101017.23
2018-06-16T04:50:14.446Z,101015.34
2018-06-16T04:55:08.888Z,101026.55
2018-06-16T05:00:03.380Z,101020.31
2018-06-16T05:04:58.195Z,101018.30
2018-06-16T05:09:52.976Z,101017.98
2018-06-16T05:14:47.303Z,101014.52
2018-06-16T05:19:44.814Z,101011.19
2018-06-16T05:24:39.460Z,101022.22
2018-06-16T05:29:34.021Z,101030.65
2018-06-16T05:34:28.738Z,101028.94
2018-06-16T05:39:23.886Z,101034.93
2018-06-16T05:44:18.376Z,101030.45
2018-06-16T05:49:13.563Z,101037.02
2018-06-16T05:54:08.477Z,101042.44
2018-06-16T05:59:03.493Z,101037.54
2018-06-16T06:03:58.206Z,101037.45
2018-06-16T06:08:53.502Z,101041.52
2018-06-16T06:13:48.202Z,101044.36
2018-06-16T06:18:42.453Z,101044.89
2018-06-16T06:23:37.892Z,101047.02
2018-06-16T06:28:32.987Z,101041.85
2018-06-16T06:33:28.957Z,101043.44
2018-06-16T06:38:26.174Z,101044.64
2018-06-16T06:43:22.166Z,101043.59
2018-06-16T06:48:17.084Z,101048.72
2018-06-16T06:53:12.031Z,101053.02
2018-06-16T06:58:06.974Z,101044.94
2018-06-16T07:03:01.763Z,101037.66
2018-06-16T07:07:56.546Z,101039.20
2018-06-16T07:12:51.375Z,101035.06
2018-06-16T07:17:46.358Z,101032.95
2018-06-16T07:22:41.342Z,101040.32
2018-06-16T07:27:36.381Z,101030.43
2018-06-16T07:32:31.183Z,101035.56
2018-06-16T07:37:26.812Z,101043.92
2018-06-16T07:42:21.647Z,101038.31
2018-06-16T07:47:16.554Z,101036.29
2018-06-16T07:52:11.327Z,101037.13
2018-06-16T07:57:06.116Z,101024.03
2018-06-16T08:02:01.245Z,101025.56
2018-06-16T08:06:56.342Z,101032.16
2018-06-16T08:11:51.126Z,101025.58
2018-06-16T08:16:45.859Z,101030.91
2018-06-16T08:21:40.793Z,101026.99
2018-06-16T08:26:35.706Z,101027.33
2018-06-16T08:31:30.801Z,101021.88
2018-06-16T08:36:25.604Z,101025.66
2018-06-16T08:41:20.242Z,101027.24
2018-06-16T08:46:15.170Z,101021.15
2018-06-16T08:51:09.970Z,101022.38
2018-06-16T08:56:05.671Z,101022.81
2018-06-16T09:01:00.390Z,101016.27
2018-06-16T09:06:01.863Z,101015.41
2018-06-16T09:10:57.054Z,101017.87
2018-06-16T09:15:52.132Z,101018.42
2018-06-16T09:20:46.900Z,101009.27
2018-06-16T09:25:41.680Z,101003.27
2018-06-16T09:30:36.835Z,101005.75
2018-06-16T09:35:31.746Z,101002.94
2018-06-16T09:40:26.596Z,101002.59
2018-06-16T09:45:21.325Z,100999.22
2018-06-16T09:50:16.154Z,100998.41
2018-06-16T09:55:10.894Z,100996.64
2018-06-16T10:00:10.603Z,100989.83
2018-06-16T10:05:05.525Z,100991.52
2018-06-16T10:10:00.733Z,100991.20
2018-06-16T10:14:55.543Z,100994.38
2018-06-16T10:19:50.362Z,100972.93
2018-06-16T10:24:45.299Z,100979.32
2018-06-16T10:29:40.135Z,100971.60
2018-06-16T10:34:34.657Z,100962.02
2018-06-16T10:39:29.457Z,100955.00
2018-06-16T10:44:24.204Z,100956.98
2018-06-16T10:49:19.394Z,100963.46
2018-06-16T10:54:14.169Z,100960.27
2018-06-16T10:59:09.753Z,100953.60
2018-06-16T11:04:04.481Z,100961.92
2018-06-16T11:08:59.213Z,100961.77
2018-06-16T11:13:53.999Z,100948.34
2018-06-16T11:18:48.787Z,100942.86
2018-06-16T11:23:43.794Z,100941.16
2018-06-16T11:28:38.293Z,100938.48
2018-06-16T11:33:32.989Z,100935.22
2018-06-16T11:38:27.747Z,100928.21
2018-06-16T11:43:22.820Z,100921.69
2018-06-16T11:48:18.402Z,100911.36
2018-06-16T11:53:13.480Z,100909.58
2018-06-16T11:58:08.372Z,100907.95
2018-06-16T12:03:03.803Z,100902.38
2018-06-16T12:07:59.098Z,100883.12
2018-06-16T12:12:53.947Z,100885.40
2018-06-16T12:17:49.489Z,100878.41
2018-06-16T12:22:44.236Z,100874.15
2018-06-16T12:27:39.429Z,100864.46
2018-06-16T12:32:34.189Z,100862.31
2018-06-16T12:37:29.122Z,100857.68
2018-06-16T12:42:24.357Z,100858.55
2018-06-16T12:47:19.261Z,100861.08
2018-06-16T12:52:14.558Z,100853.85
2018-06-16T12:57:09.462Z,100865.72
2018-06-16T13:02:04.400Z,100861.00
2018-06-16T13:06:59.136Z,100854.19
2018-06-16T13:11:53.883Z,100847.41
2018-06-16T13:16:48.871Z,100846.34
2018-06-16T13:21:43.932Z,100848.43
2018-06-16T13:26:39.458Z,100851.67
2018-06-16T13:31:34.732Z,100852.27
2018-06-16T13:36:29.909Z,100851.00
2018-06-16T13:41:24.619Z,100846.53
2018-06-16T13:46:19.595Z,100844.28
2018-06-16T13:51:14.357Z,100831.82
2018-06-16T13:56:09.230Z,100827.02
2018-06-16T14:01:03.957Z,100837.77
2018-06-16T14:05:58.412Z,100834.23
2018-06-16T14:10:53.292Z,100833.72
2018-06-16T14:15:48.119Z,100838.00
2018-06-16T14:20:43.108Z,100836.80
2018-06-16T14:25:37.769Z,100831.50
2018-06-16T14:30:32.526Z,100831.71
2018-06-16T14:35:27.071Z,100829.71
2018-06-16T14:40:22.161Z,100827.31
2018-06-16T14:45:17.080Z,100815.66
2018-06-16T14:50:12.266Z,100813.41
2018-06-16T14:55:07.278Z,100806.88
2018-06-16T15:00:02.104Z,100804.74
2018-06-16T15:04:56.880Z,100805.53
2018-06-16T15:09:51.425Z,100794.11
2018-06-16T15:14:46.350Z,100800.36
2018-06-16T15:19:40.844Z,100794.41
2018-06-16T15:24:35.566Z,100793.70
2018-06-16T15:29:30.491Z,100787.35
2018-06-16T15:34:25.152Z,100788.91
2018-06-16T15:39:20.253Z,100789.83
2018-06-16T15:44:15.387Z,100786.34
2018-06-16T15:49:09.956Z,100797.67
2018-06-16T15:54:04.638Z,100812.58
2018-06-16T15:58:59.095Z,100822.63
2018-06-16T16:03:53.661Z,100848.96
2018-06-16T16:08:48.154Z,100861.95
2018-06-16T16:13:43.458Z,100853.22
2018-06-16T16:18:38.754Z,100841.25
2018-06-16T16:23:33.441Z,100847.15
2018-06-16T16:28:27.999Z,100837.71
2018-06-16T16:33:22.259Z,100836.03
2018-06-16T16:38:16.860Z,100838.25
2018-06-16T16:43:11.707Z,100835.89
2018-06-16T16:48:06.217Z,100835.20
2018-06-16T16:53:00.948Z,100842.62
2018-06-16T16:57:55.636Z,100844.83
2018-06-16T17:02:50.826Z,100840.78
2018-06-16T17:07:45.505Z,100842.66
2018-06-16T17:12:40.188Z,100839.09
2018-06-16T17:17:35.061Z,100832.81
2018-06-16T17:22:29.588Z,100829.73
2018-06-16T17:27:24.487Z,100819.73
2018-06-16T17:32:19.016Z,100828.59
2018-06-16T17:37:13.786Z,100814.74
2018-06-16T17:42:08.319Z,100828.28
2018-06-16T17:47:02.846Z,100853.05
2018-06-16T17:51:57.627Z,100876.84
2018-06-16T17:56:52.464Z,100891.47
2018-06-16T18:01:47.338Z,100906.08
2018-06-16T18:06:42.109Z,100908.29
2018-06-16T18:11:39.532Z,100911.90
2018-06-16T18:16:33.990Z,100907.45
2018-06-16T18:21:28.621Z,100896.73
2018-06-16T18:26:23.291Z,100896.16
2018-06-16T18:31:18.308Z,100893.84
2018-06-16T18:36:13.358Z,100903.53
2018-06-16T18:41:07.936Z,100901.29
2018-06-16T18:46:02.419Z,100905.59
2018-06-16T18:50:57.139Z,100909.92
2018-06-16T18:55:51.996Z,100915.41
2018-06-16T19:00:48.827Z,100917.38
2018-06-16T19:05:43.546Z,100922.24
2018-06-16T19:10:38.710Z,100927.26
2018-06-16T19:15:35.355Z,100936.81
2018-06-16T19:20:30.005Z,100933.23
2018-06-16T19:25:24.852Z,100941.40
2018-06-16T19:30:19.344Z,100943.81
2018-06-16T19:35:13.897Z,100946.70
2018-06-16T19:40:08.881Z,100958.19
2018-06-16T19:45:03.378Z,100968.95
2018-06-16T19:49:58.705Z,100984.61
2018-06-16T19:54:53.206Z,100988.20
2018-06-16T20:00:03.846Z,100999.27
2018-06-16T20:05:07.519Z,101003.88
2018-06-16T20:10:22.201Z,101007.30
2018-06-16T20:15:16.814Z,101009.45
2018-06-16T20:20:11.303Z,101011.22
2018-06-16T20:25:14.345Z,101012.88
2018-06-16T20:30:08.906Z,101013.81
2018-06-16T20:35:03.655Z,101020.98
2018-06-16T20:39:58.800Z,101020.06
2018-06-16T20:44:58.788Z,101017.09
2018-06-16T20:49:53.568Z,101024.87
2018-06-16T20:54:48.635Z,101029.77
2018-06-16T20:59:44.012Z,101037.45
2018-06-16T21:04:50.712Z,101044.64
2018-06-16T21:09:56.238Z,101050.52
2018-06-16T21:15:08.082Z,101054.67
2018-06-16T21:20:16.959Z,101052.87
2018-06-16T21:25:11.590Z,101050.36
2018-06-16T21:30:06.792Z,101049.19
2018-06-16T21:35:21.085Z,101048.34
2018-06-16T21:40:40.219Z,101050.70
2018-06-16T21:45:54.475Z,101052.95
2018-06-16T21:50:58.635Z,101055.77
2018-06-16T21:56:14.289Z,101051.55
2018-06-16T22:01:25.085Z,101052.52
2018-06-16T22:06:43.239Z,101057.11
2018-06-16T22:11:50.436Z,101054.78
2018-06-16T22:16:45.116Z,101054.03
2018-06-16T22:21:44.641Z,101055.97
2018-06-16T22:26:39.903Z,101060.57
2018-06-16T22:31:34.891Z,101063.45
2018-06-16T22:36:30.821Z,101058.30
2018-06-16T22:41:26.080Z,101051.19
2018-06-16T22:46:23.927Z,101051.38
2018-06-16T22:51:18.678Z,101057.58
2018-06-16T22:56:13.772Z,101067.63
2018-06-16T23:01:08.509Z,101066.53
2018-06-16T23:06:04.098Z,101062.41
2018-06-16T23:10:59.321Z,101058.11
2018-06-16T23:15:54.191Z,101060.84
2018-06-16T23:20:49.165Z,101062.41
2018-06-16T23:25:44.079Z,101070.05
2018-06-16T23:30:39.069Z,101070.80
2018-06-16T23:35:35.748Z,101079.92
2018-06-16T23:40:30.341Z,101078.59
2018-06-16T23:45:25.063Z,101082.54
2018-06-16T23:50:19.617Z,101084.85
2018-06-16T23:55:45.676Z,101091.93
